createdAt,value
2023-04-05T00:02:30.300Z,98802.41
2023-04-05T00:05:03.335Z,98801.00
2023-04-05T00:07:36.295Z,98807.38
2023-04-05T00:10:08.629Z,98803.03
2023-04-05T00:12:41.159Z,98803.44
2023-04-05T00:15:13.335Z,98794.84
2023-04-05T00:17:46.045Z,98802.09
2023-04-05T00:20:18.606Z,98803.66
2023-04-05T00:22:53.141Z,98806.69
2023-04-05T00:25:25.957Z,98798.88
2023-04-05T00:27:57.790Z,98800.38
2023-04-05T00:30:30.294Z,98800.56
2023-04-05T00:33:02.134Z,98804.59
2023-04-05T00:35:34.718Z,98802.56
2023-04-05T00:38:06.901Z,98799.53
2023-04-05T00:40:40.055Z,98796.88
2023-04-05T00:43:12.286Z,98795.16
2023-04-05T00:45:44.978Z,98798.44
2023-04-05T00:48:17.473Z,98800.47
2023-04-05T00:50:51.476Z,98796.19
2023-04-05T00:53:23.768Z,98791.41
2023-04-05T00:55:58.153Z,98787.97
2023-04-05T00:58:30.624Z,98794.91
2023-04-05T01:01:22.983Z,98788.28
2023-04-05T01:08:43.490Z,98785.59
2023-04-05T01:11:18.096Z,98774.63
2023-04-05T01:13:50.268Z,98773.84
2023-04-05T01:16:23.386Z,98770.56
2023-04-05T01:18:58.897Z,98763.03
2023-04-05T01:21:40.345Z,98759.91
2023-04-05T01:24:57.616Z,98743.28
2023-04-05T01:27:59.404Z,98752.16
2023-04-05T01:30:38.221Z,98738.75
2023-04-05T01:33:28.470Z,98736.47
2023-04-05T01:36:22.002Z,98737.16
2023-04-05T01:38:56.547Z,98734.53
2023-04-05T01:41:29.265Z,98736.97
2023-04-05T01:44:02.029Z,98737.63
2023-04-05T01:46:34.864Z,98736.69
2023-04-05T01:49:08.057Z,98726.06
2023-04-05T01:51:42.118Z,98728.25
2023-04-05T01:54:15.001Z,98723.34
2023-04-05T01:56:48.652Z,98721.13
2023-04-05T01:59:21.441Z,98722.47
2023-04-05T02:01:53.822Z,98727.50
2023-04-05T02:04:25.905Z,98711.22
2023-04-05T02:06:59.497Z,98721.94
2023-04-05T02:09:31.412Z,98724.47
2023-04-05T02:12:04.399Z,98716.56
2023-04-05T02:14:36.399Z,98711.44
2023-04-05T02:17:09.168Z,98713.38
2023-04-05T02:19:41.206Z,98720.69
2023-04-05T02:22:14.489Z,98717.81
2023-04-05T02:24:46.431Z,98714.38
2023-04-05T02:27:19.537Z,98709.34
2023-04-05T02:29:52.978Z,98719.00
2023-04-05T02:32:48.404Z,98708.22
2023-04-05T02:35:21.299Z,98705.88
2023-04-05T02:37:55.505Z,98716.22
2023-04-05T02:40:27.486Z,98720.38
2023-04-05T02:45:55.270Z,98722.28
2023-04-05T02:48:28.881Z,98721.88
2023-04-05T02:51:05.832Z,98724.22
2023-04-05T02:53:38.135Z,98725.28
2023-04-05T02:56:14.315Z,98716.63
2023-04-05T02:58:49.760Z,98718.44
2023-04-05T03:01:27.932Z,98711.47
2023-04-05T03:04:00.777Z,98713.13
2023-04-05T03:06:32.780Z,98722.47
2023-04-05T03:09:08.397Z,98715.03
2023-04-05T03:11:40.401Z,98699.63
2023-04-05T03:14:13.408Z,98709.78
2023-04-05T03:16:50.919Z,98714.88
2023-04-05T03:19:30.027Z,98718.66
2023-04-05T03:22:14.439Z,98710.84
2023-04-05T03:24:47.964Z,98716.75
2023-04-05T03:27:23.469Z,98711.00
2023-04-05T03:30:14.917Z,98709.03
2023-04-05T03:32:55.309Z,98706.09
2023-04-05T03:35:42.374Z,98708.25
2023-04-05T03:38:17.472Z,98711.31
2023-04-05T03:40:59.582Z,98709.84
2023-04-05T03:43:31.506Z,98705.25
2023-04-05T03:46:04.549Z,98702.47
2023-04-05T03:48:36.625Z,98705.94
2023-04-05T03:51:12.566Z,98700.09
2023-04-05T03:53:46.053Z,98697.00
2023-04-05T03:56:19.779Z,98699.88
2023-04-05T03:58:55.234Z,98694.41
2023-04-05T04:01:31.534Z,98689.88
2023-04-05T04:04:05.475Z,98694.59
2023-04-05T04:06:38.252Z,98703.84
2023-04-05T04:09:10.600Z,98704.22
2023-04-05T04:11:42.816Z,98700.19
2023-04-05T04:14:19.712Z,98697.28
2023-04-05T04:17:30.923Z,98701.63
2023-04-05T04:20:22.456Z,98700.66
2023-04-05T04:23:04.957Z,98705.19
2023-04-05T04:25:56.479Z,98705.47
2023-04-05T04:28:48.791Z,98711.22
2023-04-05T04:31:46.472Z,98709.59
2023-04-05T04:34:44.905Z,98704.69
2023-04-05T04:37:47.680Z,98699.41
2023-04-05T04:40:47.466Z,98703.81
2023-04-05T04:43:48.684Z,98708.94
2023-04-05T04:47:00.056Z,98711.03
2023-04-05T04:49:57.397Z,98710.53
2023-04-05T04:52:34.567Z,98717.81
2023-04-05T04:55:09.498Z,98707.53
2023-04-05T04:57:42.981Z,98713.28
2023-04-05T05:00:16.414Z,98718.09
2023-04-05T05:02:53.049Z,98721.25
2023-04-05T05:05:26.861Z,98733.88
2023-04-05T05:07:58.777Z,98735.69
2023-04-05T05:10:31.937Z,98720.53
2023-04-05T05:13:07.879Z,98711.91
2023-04-05T05:15:43.755Z,98712.47
2023-04-05T05:18:16.140Z,98726.28
2023-04-05T05:20:52.252Z,98723.81
2023-04-05T05:23:42.835Z,98726.88
2023-04-05T05:26:16.036Z,98726.16
2023-04-05T05:28:49.927Z,98728.94
2023-04-05T05:31:27.191Z,98724.81
2023-04-05T05:33:59.751Z,98729.31
2023-04-05T05:36:33.510Z,98725.66
2023-04-05T05:39:25.127Z,98725.66
2023-04-05T05:41:58.306Z,98731.91
2023-04-05T05:44:31.320Z,98726.63
2023-04-05T05:47:03.694Z,98730.97
2023-04-05T05:49:37.452Z,98734.91
2023-04-05T05:52:09.369Z,98741.06
2023-04-05T05:54:44.100Z,98742.81
2023-04-05T05:57:16.017Z,98738.56
2023-04-05T06:00:12.383Z,98734.81
2023-04-05T06:02:44.301Z,98729.91
2023-04-05T06:05:17.583Z,98736.94
2023-04-05T06:08:08.907Z,98748.41
2023-04-05T06:10:41.848Z,98743.97
2023-04-05T06:13:14.801Z,98744.44
2023-04-05T06:15:48.354Z,98742.03
2023-04-05T06:18:24.116Z,98739.63
2023-04-05T06:20:56.837Z,98738.75
2023-04-05T06:23:30.454Z,98738.47
2023-04-05T06:26:05.621Z,98735.00
2023-04-05T06:28:37.971Z,98726.81
2023-04-05T06:31:11.555Z,98734.91
2023-04-05T06:33:46.003Z,98734.50
2023-04-05T06:36:21.405Z,98738.13
2023-04-05T06:38:54.156Z,98734.72
2023-04-05T06:41:28.243Z,98732.84
2023-04-05T06:44:00.173Z,98738.63
2023-04-05T06:46:33.469Z,98725.78
2023-04-05T06:49:05.448Z,98736.19
2023-04-05T06:51:40.491Z,98730.34
2023-04-05T06:54:12.482Z,98728.31
2023-04-05T06:56:46.410Z,98735.56
2023-04-05T06:59:18.802Z,98730.69
2023-04-05T07:01:50.842Z,98737.31
2023-04-05T07:04:24.329Z,98741.19
2023-04-05T07:06:56.860Z,98738.75
2023-04-05T07:09:32.992Z,98745.38
2023-04-05T07:12:07.202Z,98739.59
2023-04-05T07:14:40.009Z,98736.50
2023-04-05T07:17:12.396Z,98731.16
2023-04-05T07:19:45.774Z,98733.28
2023-04-05T07:22:17.690Z,98727.91
2023-04-05T07:24:53.399Z,98733.81
2023-04-05T07:27:25.309Z,98734.16
2023-04-05T07:29:58.432Z,98738.28
2023-04-05T07:32:30.536Z,98737.00
2023-04-05T07:35:05.685Z,98746.50
2023-04-05T07:37:38.636Z,98732.88
2023-04-05T07:40:11.499Z,98744.16
2023-04-05T07:42:44.508Z,98748.63
2023-04-05T07:45:18.346Z,98745.16
2023-04-05T07:47:51.354Z,98743.50
2023-04-05T07:50:24.385Z,98749.00
2023-04-05T07:52:57.148Z,98750.75
2023-04-05T07:55:29.224Z,98750.38
2023-04-05T07:58:03.640Z,98745.28
2023-04-05T08:00:36.714Z,98742.44
2023-04-05T08:03:10.269Z,98736.59
2023-04-05T08:06:13.951Z,98738.28
2023-04-05T08:08:48.424Z,98736.41
2023-04-05T08:11:21.911Z,98736.84
2023-04-05T08:13:54.445Z,98735.22
2023-04-05T08:16:27.837Z,98729.72
2023-04-05T08:19:00.511Z,98739.50
2023-04-05T08:21:34.530Z,98733.66
2023-04-05T08:24:07.016Z,98738.78
2023-04-05T08:26:40.504Z,98732.31
2023-04-05T08:29:12.683Z,98730.38
2023-04-05T08:31:46.366Z,98727.75
2023-04-05T08:34:18.744Z,98729.06
2023-04-05T08:37:14.059Z,98723.47
2023-04-05T08:39:46.460Z,98729.63
2023-04-05T08:42:27.402Z,98734.19
2023-04-05T08:45:03.867Z,98723.63
2023-04-05T08:47:40.653Z,98731.00
2023-04-05T08:50:13.671Z,98731.66
2023-04-05T08:52:51.896Z,98726.34
2023-04-05T08:55:24.934Z,98728.31
2023-04-05T08:58:01.503Z,98731.69
2023-04-05T09:00:34.183Z,98736.31
2023-04-05T09:03:08.227Z,98742.22
2023-04-05T09:05:45.964Z,98732.06
2023-04-05T09:08:21.055Z,98729.63
2023-04-05T09:10:53.412Z,98737.28
2023-04-05T09:13:25.695Z,98727.38
2023-04-05T09:15:58.157Z,98734.91
2023-04-05T09:18:32.324Z,98726.19
2023-04-05T09:21:05.819Z,98726.69
2023-04-05T09:23:38.440Z,98725.66
2023-04-05T09:26:26.364Z,98730.91
2023-04-05T09:29:02.955Z,98729.59
2023-04-05T09:31:36.992Z,98724.34
2023-04-05T09:34:22.447Z,98712.50
2023-04-05T09:36:54.855Z,98714.25
2023-04-05T09:39:33.835Z,98714.47
2023-04-05T09:42:11.979Z,98712.28
2023-04-05T09:45:03.190Z,98710.31
2023-04-05T09:47:39.644Z,98714.03
2023-04-05T09:50:17.005Z,98713.84
2023-04-05T09:52:49.698Z,98713.41
2023-04-05T09:55:29.463Z,98703.13
2023-04-05T09:58:02.251Z,98710.31
2023-04-05T10:00:37.746Z,98707.44
2023-04-05T10:03:10.221Z,98710.31
2023-04-05T10:05:44.728Z,98697.94
2023-04-05T10:08:17.271Z,98699.78
2023-04-05T10:10:55.084Z,98700.53
2023-04-05T10:13:27.460Z,98693.22
2023-04-05T10:16:02.637Z,98706.53
2023-04-05T10:18:47.866Z,98702.84
2023-04-05T10:21:24.246Z,98708.88
2023-04-05T10:24:17.306Z,98698.66
2023-04-05T10:27:06.847Z,98700.50
2023-04-05T10:29:51.765Z,98700.78
2023-04-05T10:32:54.767Z,98704.91
2023-04-05T10:35:58.405Z,98714.78
2023-04-05T10:38:47.137Z,98705.66
2023-04-05T10:41:19.213Z,98696.31
2023-04-05T10:43:54.884Z,98698.69
2023-04-05T10:46:26.990Z,98695.91
2023-04-05T10:49:50.169Z,98692.34
2023-04-05T10:52:23.287Z,98694.91
2023-04-05T10:54:59.508Z,98697.56
2023-04-05T10:57:32.696Z,98699.66
2023-04-05T11:00:06.012Z,98696.38
2023-04-05T11:02:38.463Z,98699.66
2023-04-05T11:05:38.935Z,98690.31
2023-04-05T11:08:12.624Z,98682.88
2023-04-05T11:10:53.814Z,98679.63
2023-04-05T11:13:53.398Z,98685.72
2023-04-05T11:16:41.074Z,98682.19
2023-04-05T11:19:13.181Z,98680.94
2023-04-05T11:21:46.032Z,98674.38
2023-04-05T11:24:18.937Z,98675.16
2023-04-05T11:26:51.201Z,98678.78
2023-04-05T11:29:46.711Z,98670.47
2023-04-05T11:32:19.566Z,98670.44
2023-04-05T11:35:06.212Z,98674.91
2023-04-05T11:38:00.702Z,98670.91
2023-04-05T11:43:13.068Z,98678.91
2023-04-05T11:45:47.017Z,98674.69
2023-04-05T11:48:20.261Z,98673.44
2023-04-05T11:50:54.604Z,98666.19
2023-04-05T11:53:27.527Z,98671.34
2023-04-05T11:56:08.902Z,98660.97
2023-04-05T11:58:41.640Z,98664.84
2023-04-05T12:01:13.665Z,98664.94
2023-04-05T12:03:57.401Z,98658.25
2023-04-05T12:06:29.639Z,98666.16
2023-04-05T12:09:02.383Z,98651.06
2023-04-05T12:11:34.273Z,98648.91
2023-04-05T12:14:06.615Z,98646.41
2023-04-05T12:16:50.270Z,98643.16
2023-04-05T12:19:23.565Z,98637.84
2023-04-05T12:21:55.585Z,98644.38
2023-04-05T12:24:27.945Z,98639.16
2023-04-05T12:27:01.267Z,98643.78
2023-04-05T12:29:34.198Z,98629.94
2023-04-05T12:32:06.538Z,98622.59
2023-04-05T12:34:38.985Z,98629.16
2023-04-05T12:37:11.098Z,98624.63
2023-04-05T12:39:43.867Z,98624.00
2023-04-05T12:42:17.880Z,98625.28
2023-04-05T12:45:07.941Z,98625.28
2023-04-05T12:47:59.856Z,98625.94
2023-04-05T12:50:32.473Z,98625.28
2023-04-05T12:53:07.633Z,98621.97
2023-04-05T12:55:48.130Z,98625.31
2023-04-05T12:58:21.669Z,98614.00
2023-04-05T13:00:53.984Z,98611.44
2023-04-05T13:03:27.877Z,98612.09
2023-04-05T13:06:00.296Z,98612.69
2023-04-05T13:08:32.248Z,98612.75
2023-04-05T13:11:04.661Z,98605.50
2023-04-05T13:13:36.620Z,98602.75
2023-04-05T13:16:09.457Z,98610.09
2023-04-05T13:18:41.604Z,98604.81
2023-04-05T13:21:13.956Z,98606.13
2023-04-05T13:23:45.900Z,98602.06
2023-04-05T13:26:18.455Z,98601.25
2023-04-05T13:28:50.518Z,98593.88
2023-04-05T13:31:22.890Z,98591.47
2023-04-05T13:33:55.397Z,98588.28
2023-04-05T13:36:27.806Z,98587.66
2023-04-05T13:38:59.905Z,98587.59
2023-04-05T13:41:32.386Z,98585.03
2023-04-05T13:44:06.654Z,98590.91
2023-04-05T13:46:39.707Z,98591.56
2023-04-05T13:49:11.835Z,98581.03
2023-04-05T13:51:44.230Z,98572.44
2023-04-05T13:54:17.332Z,98581.63
2023-04-05T13:56:49.753Z,98576.41
2023-04-05T13:59:21.832Z,98570.47
2023-04-05T14:01:54.407Z,98569.72
2023-04-05T14:04:26.528Z,98565.13
2023-04-05T14:06:59.302Z,98567.81
2023-04-05T14:09:31.342Z,98575.72
2023-04-05T14:12:04.598Z,98571.75
2023-04-05T14:14:36.989Z,98564.53
2023-04-05T14:17:11.905Z,98569.09
2023-04-05T14:19:44.281Z,98555.94
2023-04-05T14:22:16.789Z,98555.94
2023-04-05T14:24:48.806Z,98560.59
2023-04-05T14:27:27.224Z,98558.59
2023-04-05T14:29:59.288Z,98561.22
2023-04-05T14:32:33.752Z,98558.53
2023-04-05T14:35:07.042Z,98561.91
2023-04-05T14:37:39.816Z,98552.66
2023-04-05T14:40:12.377Z,98553.94
2023-04-05T14:42:49.065Z,98548.03
2023-04-05T14:45:23.360Z,98551.97
2023-04-05T14:47:56.467Z,98551.31
2023-04-05T14:50:32.315Z,98542.75
2023-04-05T14:53:04.700Z,98539.44
2023-04-05T14:55:37.412Z,98531.53
2023-04-05T14:58:13.793Z,98538.09
2023-04-05T15:00:51.900Z,98530.16
2023-04-05T15:03:25.153Z,98525.56
2023-04-05T15:05:57.384Z,98522.25
2023-04-05T15:08:30.011Z,98524.16
2023-04-05T15:11:02.000Z,98520.22
2023-04-05T15:13:34.377Z,98524.22
2023-04-05T15:16:06.518Z,98523.53
2023-04-05T15:18:39.387Z,98520.94
2023-04-05T15:21:11.723Z,98515.69
2023-04-05T15:23:44.074Z,98518.31
2023-04-05T15:26:16.440Z,98527.56
2023-04-05T15:28:50.607Z,98519.66
2023-04-05T15:31:22.551Z,98523.56
2023-04-05T15:33:55.418Z,98520.97
2023-04-05T15:36:28.260Z,98522.94
2023-04-05T15:39:01.075Z,98515.66
2023-04-05T15:41:34.266Z,98524.25
2023-04-05T15:44:07.040Z,98520.31
2023-04-05T15:46:39.616Z,98524.25
2023-04-05T15:49:14.094Z,98518.97
2023-04-05T15:51:48.042Z,98514.34
2023-04-05T15:54:21.342Z,98524.91
2023-04-05T15:56:53.361Z,98509.03
2023-04-05T15:59:26.166Z,98505.75
2023-04-05T16:01:58.237Z,98506.44
2023-04-05T16:04:31.199Z,98497.19
2023-04-05T16:07:03.567Z,98499.78
2023-04-05T16:09:36.308Z,98495.16
2023-04-05T16:12:08.383Z,98489.25
2023-04-05T16:14:40.804Z,98497.81
2023-04-05T16:17:13.306Z,98499.81
2023-04-05T16:19:45.626Z,98496.53
2023-04-05T16:22:17.619Z,98498.50
2023-04-05T16:24:50.345Z,98489.28
2023-04-05T16:27:22.349Z,98494.53
2023-04-05T16:29:55.068Z,98493.91
2023-04-05T16:32:27.402Z,98502.47
2023-04-05T16:34:59.814Z,98499.16
2023-04-05T16:37:32.645Z,98500.47
2023-04-05T16:40:07.993Z,98493.22
2023-04-05T16:42:40.329Z,98491.91
2023-04-05T16:45:13.140Z,98493.88
2023-04-05T16:47:45.551Z,98499.19
2023-04-05T16:50:17.942Z,98496.53
2023-04-05T16:52:49.959Z,98503.78
2023-04-05T16:55:22.712Z,98501.09
2023-04-05T16:57:56.920Z,98500.44
2023-04-05T17:00:29.838Z,98499.78
2023-04-05T17:03:02.043Z,98497.13
2023-04-05T17:05:34.525Z,98501.06
2023-04-05T17:08:06.868Z,98503.69
2023-04-05T17:10:39.875Z,98499.69
2023-04-05T17:13:11.774Z,98498.34
2023-04-05T17:15:45.226Z,98506.91
2023-04-05T17:18:18.814Z,98498.94
2023-04-05T17:20:51.103Z,98508.78
2023-04-05T17:23:25.892Z,98509.44
2023-04-05T17:25:58.335Z,98515.31
2023-04-05T17:28:32.485Z,98507.38
2023-04-05T17:31:07.743Z,98515.91
2023-04-05T17:33:40.724Z,98515.19
2023-04-05T17:36:14.521Z,98515.78
2023-04-05T17:39:06.398Z,98515.06
2023-04-05T17:41:38.912Z,98524.28
2023-04-05T17:44:12.041Z,98522.91
2023-04-05T17:46:51.323Z,98522.91
2023-04-05T17:49:29.899Z,98519.50
2023-04-05T17:52:04.822Z,98529.28
2023-04-05T17:54:37.170Z,98527.94
2023-04-05T17:57:16.212Z,98527.84
2023-04-05T17:59:50.868Z,98533.63
2023-04-05T18:02:23.443Z,98527.66
2023-04-05T18:04:56.286Z,98536.22
2023-04-05T18:07:28.588Z,98534.69
2023-04-05T18:10:01.180Z,98535.31
2023-04-05T18:12:34.661Z,98537.84
2023-04-05T18:15:09.179Z,98537.06
2023-04-05T18:17:41.386Z,98542.97
2023-04-05T18:20:14.395Z,98548.72
2023-04-05T18:22:47.240Z,98552.53
2023-04-05T18:25:21.603Z,98554.16
2023-04-05T18:27:53.804Z,98558.66
2023-04-05T18:30:26.799Z,98571.44
2023-04-05T18:33:00.437Z,98570.44
2023-04-05T18:35:32.456Z,98570.28
2023-04-05T18:38:06.752Z,98569.50
2023-04-05T18:40:38.667Z,98575.47
2023-04-05T18:43:12.019Z,98580.66
2023-04-05T18:45:44.173Z,98579.13
2023-04-05T18:48:17.523Z,98586.22
2023-04-05T18:50:51.733Z,98593.19
2023-04-05T18:53:25.272Z,98594.16
2023-04-05T18:55:57.867Z,98601.09
2023-04-05T18:58:30.573Z,98608.00
2023-04-05T19:01:06.758Z,98608.44
2023-04-05T19:03:39.741Z,98621.88
2023-04-05T19:06:13.209Z,98613.66
2023-04-05T19:08:45.972Z,98618.66
2023-04-05T19:11:18.733Z,98622.34
2023-04-05T19:13:55.732Z,98628.56
2023-04-05T19:16:28.582Z,98623.19
2023-04-05T19:19:02.823Z,98620.25
2023-04-05T19:21:35.831Z,98626.50
2023-04-05T19:24:09.883Z,98622.41
2023-04-05T19:26:46.340Z,98623.63
2023-04-05T19:29:18.729Z,98628.22
2023-04-05T19:31:51.515Z,98631.47
2023-04-05T19:37:18.094Z,98632.19
2023-04-05T19:39:50.846Z,98640.53
2023-04-05T19:42:22.736Z,98637.19
2023-04-05T19:44:58.479Z,98641.88
2023-04-05T19:47:30.373Z,98643.06
2023-04-05T19:50:05.774Z,98638.91
2023-04-05T19:52:37.536Z,98643.75
2023-04-05T19:55:32.092Z,98655.38
2023-04-05T19:58:09.399Z,98643.09
2023-04-05T20:00:53.016Z,98648.09
2023-04-05T20:03:39.501Z,98642.06
2023-04-05T20:06:13.591Z,98652.78
2023-04-05T20:08:47.752Z,98651.72
2023-04-05T20:11:22.813Z,98659.22
2023-04-05T20:13:57.077Z,98652.56
2023-04-05T20:16:33.202Z,98653.34
2023-04-05T20:19:09.960Z,98649.41
2023-04-05T20:21:42.927Z,98656.50
2023-04-05T20:24:21.866Z,98656.16
2023-04-05T20:26:55.479Z,98651.44
2023-04-05T20:29:32.726Z,98649.88
2023-04-05T20:32:05.864Z,98651.16
2023-04-05T20:34:39.252Z,98655.63
2023-04-05T20:37:13.021Z,98649.59
2023-04-05T20:39:46.144Z,98647.63
2023-04-05T20:42:18.496Z,98648.00
2023-04-05T20:44:54.377Z,98647.72
2023-04-05T20:47:26.241Z,98644.97
2023-04-05T20:49:59.122Z,98644.06
2023-04-05T20:52:31.853Z,98649.03
2023-04-05T20:55:04.971Z,98639.88
2023-04-05T20:57:37.438Z,98642.25
2023-04-05T21:00:11.662Z,98648.69
2023-04-05T21:02:43.702Z,98641.56
2023-04-05T21:05:16.757Z,98640.56
2023-04-05T21:07:49.080Z,98648.03
2023-04-05T21:10:21.989Z,98645.72
2023-04-05T21:12:54.855Z,98647.97
2023-04-05T21:15:31.634Z,98651.91
2023-04-05T21:18:08.063Z,98654.59
2023-04-05T21:20:40.438Z,98646.78
2023-04-05T21:23:12.325Z,98642.53
2023-04-05T21:25:46.854Z,98640.81
2023-04-05T21:28:19.340Z,98643.13
2023-04-05T21:33:44.845Z,98654.13
2023-04-05T21:36:17.150Z,98653.16
2023-04-05T21:38:49.607Z,98656.41
2023-04-05T21:41:21.543Z,98659.78
2023-04-05T21:43:54.311Z,98657.19
2023-04-05T21:46:26.228Z,98658.63
2023-04-05T21:48:59.036Z,98660.06
2023-04-05T21:51:31.340Z,98655.81
2023-04-05T21:54:04.085Z,98659.97
2023-04-05T21:56:36.660Z,98652.81
2023-04-05T21:59:09.996Z,98655.00
2023-04-05T22:01:42.137Z,98653.94
2023-04-05T22:04:15.160Z,98657.28
2023-04-05T22:06:47.072Z,98659.22
2023-04-05T22:09:19.823Z,98647.00
2023-04-05T22:11:52.433Z,98654.81
2023-04-05T22:14:25.887Z,98654.47
2023-04-05T22:16:58.139Z,98650.88
2023-04-05T22:19:33.627Z,98661.78
2023-04-05T22:22:05.966Z,98663.72
2023-04-05T22:24:38.513Z,98661.69
2023-04-05T22:27:11.922Z,98673.72
2023-04-05T22:29:48.932Z,98656.53
2023-04-05T22:32:21.253Z,98663.16
2023-04-05T22:34:53.855Z,98658.53
2023-04-05T22:37:26.067Z,98652.25
2023-04-05T22:39:58.767Z,98646.53
2023-04-05T22:42:31.173Z,98655.69
2023-04-05T22:45:03.895Z,98646.03
2023-04-05T22:47:36.262Z,98649.22
2023-04-05T22:50:09.666Z,98642.75
2023-04-05T22:52:41.546Z,98650.41
2023-04-05T22:55:14.789Z,98651.00
2023-04-05T22:57:46.772Z,98646.78
2023-04-05T23:00:19.530Z,98640.50
2023-04-05T23:02:51.437Z,98639.06
2023-04-05T23:05:25.036Z,98644.19
2023-04-05T23:08:15.735Z,98642.25
2023-04-05T23:10:48.526Z,98644.59
2023-04-05T23:13:21.774Z,98645.63
2023-04-05T23:15:54.182Z,98634.03
2023-04-05T23:18:26.294Z,98636.28
2023-04-05T23:20:59.465Z,98636.97
2023-04-05T23:23:31.428Z,98643.66
2023-04-05T23:26:04.310Z,98637.47
2023-04-05T23:28:36.857Z,98637.63
2023-04-05T23:31:08.839Z,98630.66
2023-04-05T23:33:41.584Z,98636.94
2023-04-05T23:36:14.043Z,98635.78
2023-04-05T23:38:46.059Z,98635.19
2023-04-05T23:41:18.756Z,98634.00
2023-04-05T23:43:51.856Z,98637.66
2023-04-05T23:46:24.335Z,98629.72
2023-04-05T23:48:56.362Z,98624.94
2023-04-05T23:51:29.111Z,98626.19
2023-04-05T23:54:02.024Z,98628.69
2023-04-05T23:56:35.121Z,98618.13
2023-04-05T23:59:07.367Z,98624.84
